createdAt,value
2024-01-06T00:01:59.882Z,98508.13
2024-01-06T00:04:28.916Z,98508.78
2024-01-06T00:06:59.550Z,98510.06
2024-01-06T00:09:28.438Z,98498.84
2024-01-06T00:11:57.624Z,98503.16
2024-01-06T00:14:26.424Z,98505.78
2024-01-06T00:16:55.477Z,98512.94
2024-01-06T00:19:24.368Z,98507.00
2024-01-06T00:21:53.534Z,98510.53
2024-01-06T00:24:23.722Z,98502.81
2024-01-06T00:26:52.825Z,98511.66
2024-01-06T00:29:21.594Z,98508.19
2024-01-06T00:31:50.781Z,98512.81
2024-01-06T00:34:19.856Z,98518.78
2024-01-06T00:36:49.113Z,98509.72
2024-01-06T00:39:17.960Z,98514.88
2024-01-06T00:41:48.469Z,98507.75
2024-01-06T00:44:17.235Z,98509.06
2024-01-06T00:46:47.406Z,98509.16
2024-01-06T00:49:16.355Z,98509.13
2024-01-06T00:51:45.412Z,98502.31
2024-01-06T00:54:14.483Z,98505.94
2024-01-06T00:56:44.123Z,98485.72
2024-01-06T00:59:14.388Z,98493.25
2024-01-06T01:01:43.595Z,98492.66
2024-01-06T01:04:12.488Z,98490.78
2024-01-06T01:06:41.594Z,98497.88
2024-01-06T01:09:11.745Z,98488.19
2024-01-06T01:11:41.069Z,98487.59
2024-01-06T01:14:09.876Z,98492.00
2024-01-06T01:16:40.475Z,98483.03
2024-01-06T01:19:09.311Z,98486.00
2024-01-06T01:21:38.439Z,98471.03
2024-01-06T01:24:07.661Z,98482.22
2024-01-06T01:26:36.780Z,98482.94
2024-01-06T01:29:05.707Z,98479.47
2024-01-06T01:31:35.727Z,98473.44
2024-01-06T01:34:06.124Z,98479.25
2024-01-06T01:36:35.288Z,98487.19
2024-01-06T01:39:04.063Z,98472.78
2024-01-06T01:41:33.122Z,98479.59
2024-01-06T01:44:01.926Z,98472.34
2024-01-06T01:46:32.217Z,98453.03
2024-01-06T01:49:02.877Z,98439.94
2024-01-06T01:51:36.390Z,98431.75
2024-01-06T01:54:07.582Z,98439.56
2024-01-06T01:56:38.588Z,98438.88
2024-01-06T01:59:13.164Z,98446.88
2024-01-06T02:01:42.603Z,98435.25
2024-01-06T02:04:12.060Z,98435.25
2024-01-06T02:06:42.671Z,98435.16
2024-01-06T02:09:12.447Z,98439.34
2024-01-06T02:11:41.509Z,98419.28
2024-01-06T02:14:10.418Z,98420.00
2024-01-06T02:16:39.449Z,98424.59
2024-01-06T02:19:13.217Z,98428.03
2024-01-06T02:21:46.034Z,98418.16
2024-01-06T02:24:16.436Z,98431.16
2024-01-06T02:26:45.556Z,98422.97
2024-01-06T02:29:14.463Z,98422.75
2024-01-06T02:31:43.677Z,98429.72
2024-01-06T02:34:12.651Z,98415.66
2024-01-06T02:36:41.841Z,98409.50
2024-01-06T02:39:10.744Z,98394.31
2024-01-06T02:41:41.325Z,98391.72
2024-01-06T02:44:13.687Z,98388.69
2024-01-06T02:46:43.271Z,98387.06
2024-01-06T02:49:12.235Z,98376.56
2024-01-06T02:51:41.478Z,98390.78
2024-01-06T02:54:10.232Z,98375.97
2024-01-06T02:56:40.751Z,98391.00
2024-01-06T02:59:09.508Z,98377.78
2024-01-06T03:01:38.800Z,98382.44
2024-01-06T03:04:07.713Z,98377.06
2024-01-06T03:06:37.974Z,98371.97
2024-01-06T03:09:07.596Z,98368.38
2024-01-06T03:11:36.755Z,98360.63
2024-01-06T03:14:07.025Z,98351.88
2024-01-06T03:16:36.102Z,98349.25
2024-01-06T03:19:04.921Z,98345.69
2024-01-06T03:21:34.114Z,98349.19
2024-01-06T03:24:02.850Z,98345.03
2024-01-06T03:26:31.934Z,98347.00
2024-01-06T03:29:00.827Z,98345.56
2024-01-06T03:31:31.818Z,98345.72
2024-01-06T03:34:01.317Z,98347.47
2024-01-06T03:36:30.536Z,98345.13
2024-01-06T03:38:59.313Z,98336.16
2024-01-06T03:41:29.122Z,98343.13
2024-01-06T03:43:57.907Z,98336.16
2024-01-06T03:46:27.271Z,98338.47
2024-01-06T03:48:57.928Z,98329.91
2024-01-06T03:51:27.147Z,98335.66
2024-01-06T03:53:56.235Z,98331.22
2024-01-06T03:56:25.490Z,98330.25
2024-01-06T03:58:54.225Z,98323.47
2024-01-06T04:01:23.390Z,98324.91
2024-01-06T04:03:52.186Z,98324.13
2024-01-06T04:06:22.704Z,98318.97
2024-01-06T04:08:51.625Z,98323.31
2024-01-06T04:11:20.806Z,98318.03
2024-01-06T04:13:49.652Z,98325.16
2024-01-06T04:16:18.796Z,98317.34
2024-01-06T04:18:47.641Z,98314.66
2024-01-06T04:21:16.856Z,98315.81
2024-01-06T04:23:46.046Z,98315.88
2024-01-06T04:26:15.630Z,98313.25
2024-01-06T04:28:44.539Z,98311.34
2024-01-06T04:31:13.803Z,98314.06
2024-01-06T04:33:42.860Z,98305.13
2024-01-06T04:36:12.135Z,98308.31
2024-01-06T04:38:41.122Z,98315.22
2024-01-06T04:41:11.630Z,98317.59
2024-01-06T04:43:40.426Z,98322.88
2024-01-06T04:46:09.669Z,98320.03
2024-01-06T04:48:38.518Z,98313.19
2024-01-06T04:51:11.047Z,98311.25
2024-01-06T04:53:40.521Z,98312.63
2024-01-06T04:56:09.734Z,98319.94
2024-01-06T04:58:40.081Z,98323.19
2024-01-06T05:01:09.642Z,98318.41
2024-01-06T05:03:38.755Z,98320.13
2024-01-06T05:06:07.999Z,98314.53
2024-01-06T05:08:39.873Z,98313.59
2024-01-06T05:11:08.953Z,98318.88
2024-01-06T05:13:39.074Z,98322.28
2024-01-06T05:16:09.393Z,98315.91
2024-01-06T05:18:39.275Z,98320.16
2024-01-06T05:21:09.637Z,98313.03
2024-01-06T05:23:38.366Z,98323.94
2024-01-06T05:26:07.436Z,98312.09
2024-01-06T05:28:36.175Z,98316.78
2024-01-06T05:31:06.813Z,98311.66
2024-01-06T05:33:35.811Z,98301.66
2024-01-06T05:36:05.461Z,98296.19
2024-01-06T05:38:34.398Z,98292.28
2024-01-06T05:41:03.438Z,98295.72
2024-01-06T05:43:32.282Z,98301.44
2024-01-06T05:46:01.444Z,98302.19
2024-01-06T05:48:31.808Z,98294.81
2024-01-06T05:51:00.926Z,98298.78
2024-01-06T05:53:29.817Z,98293.41
2024-01-06T05:55:59.319Z,98293.81
2024-01-06T05:58:28.138Z,98296.84
2024-01-06T06:00:57.302Z,98297.22
2024-01-06T06:03:26.188Z,98297.81
2024-01-06T06:05:56.872Z,98301.72
2024-01-06T06:08:25.834Z,98289.34
2024-01-06T06:11:03.116Z,98301.28
2024-01-06T06:13:32.256Z,98299.06
2024-01-06T06:16:01.398Z,98298.91
2024-01-06T06:18:30.260Z,98298.03
2024-01-06T06:21:01.648Z,98301.69
2024-01-06T06:23:30.378Z,98297.38
2024-01-06T06:26:00.460Z,98297.19
2024-01-06T06:28:29.168Z,98293.34
2024-01-06T06:30:58.310Z,98297.56
2024-01-06T06:33:27.165Z,98281.44
2024-01-06T06:35:56.362Z,98269.38
2024-01-06T06:38:27.815Z,98289.53
2024-01-06T06:40:57.615Z,98288.66
2024-01-06T06:43:26.686Z,98288.63
2024-01-06T06:45:57.189Z,98286.63
2024-01-06T06:48:26.753Z,98300.59
2024-01-06T06:50:55.599Z,98297.19
2024-01-06T06:53:26.127Z,98297.56
2024-01-06T06:55:54.984Z,98303.38
2024-01-06T06:58:24.070Z,98306.72
2024-01-06T07:00:55.464Z,98316.03
2024-01-06T07:03:24.770Z,98301.00
2024-01-06T07:05:53.686Z,98299.38
2024-01-06T07:08:22.856Z,98309.59
2024-01-06T07:10:53.090Z,98298.28
2024-01-06T07:13:22.140Z,98306.25
2024-01-06T07:15:52.347Z,98315.09
2024-01-06T07:18:24.460Z,98312.59
2024-01-06T07:20:53.486Z,98314.31
2024-01-06T07:23:22.659Z,98312.34
2024-01-06T07:25:52.971Z,98312.78
2024-01-06T07:28:22.319Z,98318.78
2024-01-06T07:30:51.803Z,98308.84
2024-01-06T07:33:22.169Z,98309.78
2024-01-06T07:35:50.901Z,98312.22
2024-01-06T07:38:20.699Z,98311.38
2024-01-06T07:40:49.558Z,98317.84
2024-01-06T07:43:20.124Z,98306.19
2024-01-06T07:45:52.119Z,98316.38
2024-01-06T07:48:21.475Z,98317.53
2024-01-06T07:50:50.432Z,98313.53
2024-01-06T07:53:19.475Z,98313.50
2024-01-06T07:55:48.270Z,98308.03
2024-01-06T07:58:18.189Z,98307.78
2024-01-06T08:00:48.660Z,98315.84
2024-01-06T08:03:17.848Z,98310.53
2024-01-06T08:05:47.882Z,98304.94
2024-01-06T08:08:18.105Z,98318.09
2024-01-06T08:10:47.179Z,98311.72
2024-01-06T08:13:16.421Z,98310.88
2024-01-06T08:15:45.319Z,98313.06
2024-01-06T08:18:16.074Z,98306.06
2024-01-06T08:20:45.351Z,98307.06
2024-01-06T08:23:14.594Z,98308.34
2024-01-06T08:25:43.358Z,98301.19
2024-01-06T08:28:12.745Z,98313.16
2024-01-06T08:30:41.663Z,98314.44
2024-01-06T08:33:11.234Z,98305.72
2024-01-06T08:35:41.610Z,98309.19
2024-01-06T08:38:10.813Z,98310.41
2024-01-06T08:40:39.686Z,98314.44
2024-01-06T08:43:08.682Z,98310.75
2024-01-06T08:45:37.523Z,98308.78
2024-01-06T08:48:07.420Z,98309.44
2024-01-06T08:50:36.277Z,98315.34
2024-01-06T08:53:07.206Z,98309.91
2024-01-06T08:55:38.064Z,98318.13
2024-01-06T08:58:07.526Z,98313.84
2024-01-06T09:00:36.340Z,98312.13
2024-01-06T09:03:06.039Z,98303.63
2024-01-06T09:05:35.264Z,98299.66
2024-01-06T09:08:04.438Z,98311.03
2024-01-06T09:10:34.547Z,98307.69
2024-01-06T09:13:04.032Z,98289.97
2024-01-06T09:15:33.261Z,98295.97
2024-01-06T09:18:04.073Z,98291.66
2024-01-06T09:20:33.048Z,98298.56
2024-01-06T09:23:02.178Z,98295.72
2024-01-06T09:25:31.117Z,98286.41
2024-01-06T09:28:01.928Z,98297.84
2024-01-06T09:30:30.792Z,98292.44
2024-01-06T09:32:59.933Z,98294.22
2024-01-06T09:35:28.762Z,98297.44
2024-01-06T09:37:58.276Z,98296.81
2024-01-06T09:40:27.134Z,98292.91
2024-01-06T09:42:56.806Z,98283.03
2024-01-06T09:45:28.532Z,98272.75
2024-01-06T09:47:58.526Z,98263.44
2024-01-06T09:50:29.036Z,98272.56
2024-01-06T09:53:06.870Z,98268.66
2024-01-06T09:55:37.766Z,98269.53
2024-01-06T09:58:08.009Z,98256.50
2024-01-06T10:00:38.775Z,98259.84
2024-01-06T10:03:09.151Z,98253.81
2024-01-06T10:05:38.366Z,98266.91
2024-01-06T10:08:08.135Z,98257.44
2024-01-06T10:10:36.928Z,98255.72
2024-01-06T10:13:06.591Z,98250.94
2024-01-06T10:15:39.405Z,98247.03
2024-01-06T10:18:10.048Z,98249.44
2024-01-06T10:20:40.761Z,98256.00
2024-01-06T10:23:10.080Z,98249.25
2024-01-06T10:25:39.195Z,98243.22
2024-01-06T10:28:08.312Z,98237.28
2024-01-06T10:30:41.640Z,98229.03
2024-01-06T10:33:12.523Z,98231.97
2024-01-06T10:35:41.891Z,98222.09
2024-01-06T10:38:11.298Z,98216.72
2024-01-06T10:40:40.162Z,98223.84
2024-01-06T10:43:11.940Z,98217.50
2024-01-06T10:45:42.347Z,98205.72
2024-01-06T10:48:11.802Z,98213.31
2024-01-06T10:50:40.710Z,98207.78
2024-01-06T10:53:11.481Z,98208.63
2024-01-06T10:55:42.194Z,98204.00
2024-01-06T10:58:12.715Z,98193.97
2024-01-06T11:00:43.022Z,98195.47
2024-01-06T11:03:12.573Z,98186.94
2024-01-06T11:05:43.246Z,98184.44
2024-01-06T11:08:13.606Z,98178.13
2024-01-06T11:10:43.011Z,98170.22
2024-01-06T11:13:14.102Z,98168.28
2024-01-06T11:15:46.314Z,98165.03
2024-01-06T11:18:40.634Z,98164.50
2024-01-06T11:21:27.305Z,98162.34
2024-01-06T11:24:18.499Z,98158.28
2024-01-06T11:26:47.601Z,98151.00
2024-01-06T11:29:16.774Z,98154.22
2024-01-06T11:32:14.974Z,98148.53
2024-01-06T11:34:44.177Z,98138.22
2024-01-06T11:37:15.093Z,98145.19
2024-01-06T11:39:44.284Z,98145.19
2024-01-06T11:42:13.445Z,98139.16
2024-01-06T11:44:47.019Z,98146.47
2024-01-06T11:47:24.402Z,98134.44
2024-01-06T11:50:00.002Z,98131.81
2024-01-06T11:52:29.446Z,98132.09
2024-01-06T11:54:59.599Z,98131.28
2024-01-06T11:57:29.347Z,98133.41
2024-01-06T11:59:58.451Z,98127.19
2024-01-06T12:02:28.785Z,98117.09
2024-01-06T12:04:58.197Z,98117.69
2024-01-06T12:07:27.039Z,98126.84
2024-01-06T12:10:04.346Z,98114.47
2024-01-06T12:12:33.433Z,98107.91
2024-01-06T12:15:02.597Z,98103.09
2024-01-06T12:17:33.748Z,98100.94
2024-01-06T12:20:03.150Z,98094.75
2024-01-06T12:22:32.074Z,98091.34
2024-01-06T12:25:01.698Z,98091.13
2024-01-06T12:27:30.702Z,98086.94
2024-01-06T12:30:01.740Z,98076.72
2024-01-06T12:32:32.353Z,98085.00
2024-01-06T12:35:01.530Z,98090.13
2024-01-06T12:37:30.435Z,98089.69
2024-01-06T12:40:00.329Z,98083.28
2024-01-06T12:42:29.333Z,98068.97
2024-01-06T12:44:58.515Z,98078.34
2024-01-06T12:47:27.412Z,98074.56
2024-01-06T12:49:58.335Z,98063.63
2024-01-06T12:52:27.256Z,98055.38
2024-01-06T12:54:56.384Z,98064.97
2024-01-06T12:57:26.456Z,98062.72
2024-01-06T12:59:55.721Z,98075.13
2024-01-06T13:02:24.579Z,98060.50
2024-01-06T13:04:53.821Z,98058.06
2024-01-06T13:07:24.413Z,98050.97
2024-01-06T13:09:54.017Z,98046.31
2024-01-06T13:12:25.100Z,98044.03
2024-01-06T13:14:54.359Z,98043.88
2024-01-06T13:17:23.128Z,98044.34
2024-01-06T13:19:52.484Z,98033.84
2024-01-06T13:22:24.333Z,98035.84
2024-01-06T13:24:54.560Z,98039.00
2024-01-06T13:27:25.068Z,98036.59
2024-01-06T13:29:54.312Z,98034.06
2024-01-06T13:32:24.193Z,98025.91
2024-01-06T13:34:56.072Z,98023.97
2024-01-06T13:37:26.273Z,98023.97
2024-01-06T13:39:55.536Z,98027.53
2024-01-06T13:42:26.024Z,98042.03
2024-01-06T13:44:55.138Z,98039.47
2024-01-06T13:47:23.958Z,98034.50
2024-01-06T13:49:53.119Z,98031.69
2024-01-06T13:52:21.973Z,98024.56
2024-01-06T13:54:52.673Z,98025.19
2024-01-06T13:57:21.750Z,98026.63
2024-01-06T13:59:50.829Z,98013.28
2024-01-06T14:02:19.758Z,98015.31
2024-01-06T14:04:49.295Z,98000.97
2024-01-06T14:07:20.261Z,98000.34
2024-01-06T14:09:49.469Z,97995.44
2024-01-06T14:12:20.118Z,97987.19
2024-01-06T14:14:49.927Z,97980.50
2024-01-06T14:17:18.674Z,97977.09
2024-01-06T14:19:48.492Z,97996.47
2024-01-06T14:22:18.626Z,97993.84
2024-01-06T14:24:48.165Z,97981.38
2024-01-06T14:27:17.077Z,97983.22
2024-01-06T14:29:47.720Z,97983.97
2024-01-06T14:32:16.566Z,97978.78
2024-01-06T14:34:46.140Z,97985.13
2024-01-06T14:37:14.925Z,97990.25
2024-01-06T14:39:44.029Z,97986.09
2024-01-06T14:42:12.906Z,97983.97
2024-01-06T14:44:42.128Z,97986.59
2024-01-06T14:47:13.846Z,97987.31
2024-01-06T14:49:43.083Z,97977.03
2024-01-06T14:52:11.933Z,97979.41
2024-01-06T14:54:41.088Z,97976.72
2024-01-06T14:57:09.945Z,97979.94
2024-01-06T14:59:39.133Z,97979.28
2024-01-06T15:02:08.633Z,97981.66
2024-01-06T15:04:41.167Z,97985.31
2024-01-06T15:07:10.865Z,97977.81
2024-01-06T15:09:42.045Z,97970.50
2024-01-06T15:12:12.962Z,97959.47
2024-01-06T15:14:42.022Z,97963.50
2024-01-06T15:17:11.056Z,97961.78
2024-01-06T15:19:43.043Z,97961.13
2024-01-06T15:22:11.956Z,97948.22
2024-01-06T15:24:41.726Z,97950.78
2024-01-06T15:27:10.503Z,97952.53
2024-01-06T15:29:39.591Z,97940.28
2024-01-06T15:32:08.941Z,97930.97
2024-01-06T15:34:38.129Z,97931.03
2024-01-06T15:37:08.410Z,97944.66
2024-01-06T15:39:37.529Z,97956.13
2024-01-06T15:42:06.867Z,97942.97
2024-01-06T15:44:35.922Z,97942.97
2024-01-06T15:47:05.135Z,97947.47
2024-01-06T15:49:34.517Z,97940.66
2024-01-06T15:52:04.749Z,97926.56
2024-01-06T15:54:35.235Z,97926.63
2024-01-06T15:57:04.085Z,97932.97
2024-01-06T15:59:33.141Z,97932.91
2024-01-06T16:02:01.954Z,97926.47
2024-01-06T16:04:32.195Z,97923.28
2024-01-06T16:07:01.180Z,97925.72
2024-01-06T16:09:30.249Z,97910.84
2024-01-06T16:12:00.375Z,97915.47
2024-01-06T16:14:32.693Z,97907.44
2024-01-06T16:17:02.703Z,97916.16
2024-01-06T16:19:32.218Z,97922.13
2024-01-06T16:22:11.081Z,97922.84
2024-01-06T16:24:46.346Z,97921.22
2024-01-06T16:27:16.608Z,97917.56
2024-01-06T16:29:45.723Z,97912.38
2024-01-06T16:32:14.886Z,97918.81
2024-01-06T16:34:44.071Z,97910.00
2024-01-06T16:37:13.318Z,97906.75
2024-01-06T16:39:42.623Z,97903.41
2024-01-06T16:42:11.424Z,97893.69
2024-01-06T16:44:41.850Z,97908.91
2024-01-06T16:47:11.124Z,97908.00
2024-01-06T16:49:40.307Z,97901.72
2024-01-06T16:52:09.190Z,97900.13
2024-01-06T16:54:38.969Z,97895.00
2024-01-06T16:57:07.690Z,97900.78
2024-01-06T16:59:36.791Z,97892.75
2024-01-06T17:02:07.049Z,97904.03
2024-01-06T17:04:36.450Z,97915.56
2024-01-06T17:07:05.767Z,97906.75
2024-01-06T17:09:35.255Z,97904.34
2024-01-06T17:12:04.360Z,97901.56
2024-01-06T17:14:33.445Z,97902.19
2024-01-06T17:17:02.214Z,97893.69
2024-01-06T17:19:32.831Z,97892.72
2024-01-06T17:22:01.820Z,97898.16
2024-01-06T17:24:31.934Z,97894.66
2024-01-06T17:27:00.718Z,97892.66
2024-01-06T17:29:30.040Z,97891.19
2024-01-06T17:31:58.849Z,97895.84
2024-01-06T17:34:27.926Z,97896.84
2024-01-06T17:36:58.265Z,97900.16
2024-01-06T17:39:27.419Z,97898.47
2024-01-06T17:41:59.993Z,97904.19
2024-01-06T17:44:30.688Z,97913.09
2024-01-06T17:46:59.913Z,97896.28
2024-01-06T17:49:29.192Z,97894.34
2024-01-06T17:51:59.626Z,97890.34
2024-01-06T17:54:28.741Z,97886.94
2024-01-06T17:56:59.218Z,97890.88
2024-01-06T17:59:29.898Z,97888.94
2024-01-06T18:01:59.096Z,97888.88
2024-01-06T18:04:28.799Z,97884.16
2024-01-06T18:06:57.739Z,97881.50
2024-01-06T18:09:29.274Z,97882.84
2024-01-06T18:11:58.134Z,97869.69
2024-01-06T18:14:32.364Z,97870.78
2024-01-06T18:17:01.548Z,97862.34
2024-01-06T18:19:30.839Z,97861.66
2024-01-06T18:21:59.905Z,97859.25
2024-01-06T18:24:31.872Z,97866.44
2024-01-06T18:27:01.037Z,97863.19
2024-01-06T18:29:30.194Z,97858.69
2024-01-06T18:31:59.059Z,97861.19
2024-01-06T18:34:28.277Z,97859.47
2024-01-06T18:36:57.116Z,97863.38
2024-01-06T18:39:26.294Z,97863.75
2024-01-06T18:41:56.724Z,97858.19
2024-01-06T18:44:25.825Z,97848.56
2024-01-06T18:46:54.645Z,97840.63
2024-01-06T18:49:23.855Z,97846.19
2024-01-06T18:51:52.651Z,97847.16
2024-01-06T18:54:30.787Z,97836.97
2024-01-06T18:57:04.748Z,97828.63
2024-01-06T18:59:33.952Z,97818.94
2024-01-06T19:02:04.401Z,97822.22
2024-01-06T19:04:33.390Z,97823.06
2024-01-06T19:07:02.296Z,97813.84
2024-01-06T19:09:31.504Z,97823.38
2024-01-06T19:12:00.974Z,97825.22
2024-01-06T19:14:31.544Z,97806.81
2024-01-06T19:17:00.193Z,97813.91
2024-01-06T19:19:29.433Z,97801.41
2024-01-06T19:21:58.411Z,97801.31
2024-01-06T19:24:32.913Z,97800.91
2024-01-06T19:27:08.768Z,97801.03
2024-01-06T19:29:43.384Z,97790.31
2024-01-06T19:32:12.837Z,97785.72
2024-01-06T19:34:43.193Z,97785.97
2024-01-06T19:37:12.105Z,97774.88
2024-01-06T19:39:41.268Z,97767.94
2024-01-06T19:42:10.089Z,97765.75
2024-01-06T19:44:40.675Z,97758.56
2024-01-06T19:47:11.048Z,97755.09
2024-01-06T19:49:40.201Z,97746.03
2024-01-06T19:52:08.987Z,97747.03
2024-01-06T19:54:39.365Z,97749.03
2024-01-06T19:57:11.459Z,97747.19
2024-01-06T19:59:43.050Z,97740.59
2024-01-06T20:02:11.790Z,97740.50
2024-01-06T20:04:42.953Z,97737.03
2024-01-06T20:07:11.922Z,97732.16
2024-01-06T20:09:46.892Z,97736.19
2024-01-06T20:12:16.990Z,97740.22
2024-01-06T20:14:47.501Z,97738.00
2024-01-06T20:17:17.229Z,97735.78
2024-01-06T20:19:47.454Z,97736.16
2024-01-06T20:22:17.691Z,97726.06
2024-01-06T20:24:47.097Z,97730.78
2024-01-06T20:27:16.040Z,97739.00
2024-01-06T20:29:45.112Z,97739.16
2024-01-06T20:32:15.572Z,97738.56
2024-01-06T20:34:46.052Z,97733.31
2024-01-06T20:37:15.020Z,97733.97
2024-01-06T20:39:44.138Z,97730.31
2024-01-06T20:42:13.006Z,97731.38
2024-01-06T20:44:42.076Z,97731.03
2024-01-06T20:47:11.158Z,97725.56
2024-01-06T20:49:41.707Z,97725.75
2024-01-06T20:52:11.517Z,97729.53
2024-01-06T20:54:40.743Z,97722.28
2024-01-06T20:57:11.017Z,97716.59
2024-01-06T20:59:41.079Z,97716.44
2024-01-06T21:02:09.873Z,97708.38
2024-01-06T21:04:38.904Z,97693.22
2024-01-06T21:07:09.080Z,97691.59
2024-01-06T21:09:38.251Z,97699.59
2024-01-06T21:12:07.637Z,97690.75
2024-01-06T21:14:39.303Z,97693.28
2024-01-06T21:17:07.998Z,97686.16
2024-01-06T21:19:37.234Z,97681.06
2024-01-06T21:22:06.184Z,97683.59
2024-01-06T21:24:36.737Z,97692.00
2024-01-06T21:27:05.801Z,97682.66
2024-01-06T21:29:34.791Z,97684.94
2024-01-06T21:32:03.647Z,97682.69
2024-01-06T21:34:32.831Z,97659.09
2024-01-06T21:37:01.968Z,97664.69
2024-01-06T21:39:31.173Z,97655.19
2024-01-06T21:42:02.395Z,97673.66
2024-01-06T21:44:31.453Z,97666.31
2024-01-06T21:47:03.014Z,97660.09
2024-01-06T21:49:33.622Z,97648.72
2024-01-06T21:52:05.616Z,97665.56
2024-01-06T21:54:34.771Z,97653.06
2024-01-06T21:57:06.029Z,97651.44
2024-01-06T21:59:36.586Z,97640.25
2024-01-06T22:02:05.630Z,97639.13
2024-01-06T22:04:34.809Z,97644.03
2024-01-06T22:07:03.868Z,97646.72
2024-01-06T22:09:33.215Z,97632.50
2024-01-06T22:12:02.091Z,97625.97
2024-01-06T22:14:32.633Z,97626.47
2024-01-06T22:17:01.599Z,97626.28
2024-01-06T22:19:30.731Z,97623.84
2024-01-06T22:22:00.283Z,97625.41
2024-01-06T22:24:30.205Z,97620.31
2024-01-06T22:26:58.937Z,97614.66
2024-01-06T22:29:28.026Z,97605.53
2024-01-06T22:31:58.164Z,97610.84
2024-01-06T22:34:27.350Z,97607.72
2024-01-06T22:36:57.180Z,97602.78
2024-01-06T22:39:27.746Z,97596.63
2024-01-06T22:41:56.620Z,97603.13
2024-01-06T22:44:25.715Z,97592.44
2024-01-06T22:46:54.466Z,97600.19
2024-01-06T22:49:25.315Z,97602.78
2024-01-06T22:51:54.274Z,97603.41
2024-01-06T22:54:23.428Z,97590.88
2024-01-06T22:56:52.238Z,97596.19
2024-01-06T22:59:21.353Z,97595.66
2024-01-06T23:01:50.795Z,97590.09
2024-01-06T23:04:20.111Z,97586.19
2024-01-06T23:06:50.964Z,97577.13
2024-01-06T23:09:20.037Z,97581.84
2024-01-06T23:11:49.282Z,97575.22
2024-01-06T23:14:18.466Z,97573.44
2024-01-06T23:16:47.246Z,97565.31
2024-01-06T23:19:16.589Z,97562.59
2024-01-06T23:21:45.422Z,97557.53
2024-01-06T23:24:19.421Z,97556.66
2024-01-06T23:26:48.276Z,97562.00
2024-01-06T23:29:17.403Z,97553.44
2024-01-06T23:31:46.309Z,97552.78
2024-01-06T23:34:26.495Z,97551.34
2024-01-06T23:37:04.417Z,97551.22
2024-01-06T23:39:35.017Z,97545.63
2024-01-06T23:42:03.815Z,97547.41
2024-01-06T23:44:32.969Z,97536.63
2024-01-06T23:47:01.885Z,97539.53
2024-01-06T23:49:31.071Z,97543.69
2024-01-06T23:52:00.237Z,97533.00
2024-01-06T23:54:29.496Z,97530.78
2024-01-06T23:56:59.685Z,97527.06
2024-01-06T23:59:29.060Z,97524.31
